createdAt,value
2018-08-20T00:01:45.515Z,98550.65
2018-08-20T00:04:14.887Z,98551.82
2018-08-20T00:06:55.151Z,98556.29
2018-08-20T00:09:35.811Z,98559.58
2018-08-20T00:12:06.446Z,98513.89
2018-08-20T00:14:35.875Z,98554.16
2018-08-20T00:17:05.591Z,98559.73
2018-08-20T00:19:35.191Z,98560.84
2018-08-20T00:22:04.495Z,98560.41
2018-08-20T00:24:33.850Z,98565.05
2018-08-20T00:27:03.966Z,98564.12
2018-08-20T00:29:37.051Z,98563.82
2018-08-20T00:32:06.437Z,98560.33
2018-08-20T00:34:35.802Z,98565.16
2018-08-20T00:37:05.208Z,98569.50
2018-08-20T00:39:34.399Z,98574.16
2018-08-20T00:42:04.008Z,98565.91
2018-08-20T00:44:33.246Z,98570.48
2018-08-20T00:47:02.710Z,98566.67
2018-08-20T00:49:31.894Z,98565.46
2018-08-20T00:52:01.412Z,98571.03
2018-08-20T00:54:30.813Z,98572.88
2018-08-20T00:57:00.215Z,98573.70
2018-08-20T00:59:29.411Z,98572.52
2018-08-20T01:01:58.815Z,98594.30
2018-08-20T01:04:28.242Z,98573.58
2018-08-20T01:06:57.823Z,98584.30
2018-08-20T01:09:27.023Z,98583.27
2018-08-20T01:11:56.685Z,98575.43
2018-08-20T01:14:26.031Z,98579.34
2018-08-20T01:16:55.432Z,98574.52
2018-08-20T01:19:24.836Z,98573.73
2018-08-20T01:21:57.208Z,98568.37
2018-08-20T01:24:26.608Z,98575.45
2018-08-20T01:26:55.982Z,98569.48
2018-08-20T01:29:25.411Z,98575.22
2018-08-20T01:31:54.712Z,98573.69
2018-08-20T01:34:24.013Z,98571.30
2018-08-20T01:36:53.413Z,98569.28
2018-08-20T01:39:22.921Z,98568.33
2018-08-20T01:41:52.219Z,98563.58
2018-08-20T01:44:21.548Z,98569.15
2018-08-20T01:46:50.918Z,98568.77
2018-08-20T01:49:20.151Z,98570.23
2018-08-20T01:51:49.519Z,98564.27
2018-08-20T01:54:19.124Z,98568.46
2018-08-20T01:56:48.392Z,98571.33
2018-08-20T01:59:17.634Z,98575.25
2018-08-20T02:01:47.023Z,98576.46
2018-08-20T02:04:16.425Z,98571.00
2018-08-20T02:06:45.932Z,98573.26
2018-08-20T02:09:15.189Z,98569.87
2018-08-20T02:11:44.443Z,98568.97
2018-08-20T02:14:13.725Z,98563.14
2018-08-20T02:16:43.434Z,98562.55
2018-08-20T02:19:12.722Z,98565.11
2018-08-20T02:21:41.957Z,98567.27
2018-08-20T02:24:11.182Z,98559.19
2018-08-20T02:26:40.633Z,98556.29
2018-08-20T02:29:10.035Z,98549.91
2018-08-20T02:31:39.333Z,98553.45
2018-08-20T02:34:08.841Z,98547.28
2018-08-20T02:36:38.083Z,98544.31
2018-08-20T02:39:10.598Z,98542.98
2018-08-20T02:41:40.719Z,98535.30
2018-08-20T02:44:11.055Z,98539.73
2018-08-20T02:46:48.466Z,98531.62
2018-08-20T02:49:18.220Z,98533.44
2018-08-20T02:51:48.744Z,98536.33
2018-08-20T02:54:18.391Z,98532.91
2018-08-20T02:56:48.923Z,98533.36
2018-08-20T02:59:18.533Z,98537.27
2018-08-20T03:01:47.930Z,98532.31
2018-08-20T03:04:17.367Z,98528.83
2018-08-20T03:06:46.835Z,98532.59
2018-08-20T03:09:16.733Z,98526.77
2018-08-20T03:11:46.152Z,98525.52
2018-08-20T03:14:15.450Z,98524.53
2018-08-20T03:16:44.761Z,98529.42
2018-08-20T03:19:14.153Z,98527.16
2018-08-20T03:21:43.554Z,98531.45
2018-08-20T03:24:12.957Z,98532.39
2018-08-20T03:26:42.359Z,98532.39
2018-08-20T03:29:11.765Z,98537.20
2018-08-20T03:31:40.949Z,98537.52
2018-08-20T03:34:10.974Z,98539.40
2018-08-20T03:36:40.424Z,98544.52
2018-08-20T03:39:09.781Z,98542.76
2018-08-20T03:41:39.180Z,98539.23
2018-08-20T03:44:08.592Z,98532.20
2018-08-20T03:46:37.944Z,98539.45
2018-08-20T03:49:07.592Z,98535.08
2018-08-20T03:51:36.994Z,98536.38
2018-08-20T03:54:06.803Z,98539.45
2018-08-20T03:56:36.309Z,98540.05
2018-08-20T03:59:05.917Z,98536.80
2018-08-20T04:01:35.522Z,98542.70
2018-08-20T04:04:05.130Z,98547.17
2018-08-20T04:06:34.618Z,98548.64
2018-08-20T04:09:04.345Z,98542.53
2018-08-20T04:11:33.539Z,98544.23
2018-08-20T04:14:02.759Z,98537.70
2018-08-20T04:16:32.241Z,98539.73
2018-08-20T04:19:05.655Z,98538.83
2018-08-20T04:21:35.039Z,98535.67
2018-08-20T04:24:04.537Z,98540.87
2018-08-20T04:26:33.756Z,98540.75
2018-08-20T04:29:03.245Z,98542.00
2018-08-20T04:31:32.648Z,98549.70
2018-08-20T04:34:02.050Z,98539.70
2018-08-20T04:36:31.373Z,98539.86
2018-08-20T04:39:00.752Z,98539.16
2018-08-20T04:41:30.153Z,98540.06
2018-08-20T04:43:59.453Z,98543.53
2018-08-20T04:46:28.858Z,98530.61
2018-08-20T04:48:58.257Z,98542.76
2018-08-20T04:51:27.838Z,98543.23
2018-08-20T04:53:57.046Z,98545.89
2018-08-20T04:56:26.731Z,98546.36
2018-08-20T04:58:56.377Z,98561.76
2018-08-20T05:01:31.968Z,98566.29
2018-08-20T05:04:01.379Z,98568.17
2018-08-20T05:06:30.610Z,98568.37
2018-08-20T05:08:59.846Z,98571.07
2018-08-20T05:11:29.225Z,98570.14
2018-08-20T05:13:58.639Z,98575.03
2018-08-20T05:16:28.194Z,98578.78
2018-08-20T05:19:03.868Z,98582.98
2018-08-20T05:21:33.388Z,98589.69
2018-08-20T05:24:02.719Z,98591.16
2018-08-20T05:26:32.234Z,98596.09
2018-08-20T05:29:01.653Z,98593.81
2018-08-20T05:31:30.996Z,98593.76
2018-08-20T05:34:00.396Z,98593.08
2018-08-20T05:36:29.697Z,98597.58
2018-08-20T05:38:58.974Z,98592.73
2018-08-20T05:41:28.382Z,98604.10
2018-08-20T05:43:57.799Z,98604.91
2018-08-20T05:46:27.203Z,98605.14
2018-08-20T05:48:56.533Z,98603.16
2018-08-20T05:51:25.746Z,98608.14
2018-08-20T05:53:54.976Z,98610.00
2018-08-20T05:56:24.398Z,98618.30
2018-08-20T05:58:53.846Z,98623.48
2018-08-20T06:01:23.115Z,98626.80
2018-08-20T06:03:52.506Z,98620.94
2018-08-20T06:06:22.006Z,98625.67
2018-08-20T06:08:51.408Z,98632.02
2018-08-20T06:11:21.015Z,98636.73
2018-08-20T06:13:50.621Z,98633.93
2018-08-20T06:16:19.919Z,98636.29
2018-08-20T06:18:49.162Z,98641.41
2018-08-20T06:21:18.387Z,98639.98
2018-08-20T06:23:47.614Z,98642.44
2018-08-20T06:26:17.017Z,98642.91
2018-08-20T06:28:46.337Z,98648.24
2018-08-20T06:31:15.719Z,98656.52
2018-08-20T06:33:44.964Z,98654.83
2018-08-20T06:36:14.316Z,98651.47
2018-08-20T06:38:43.718Z,98652.68
2018-08-20T06:41:13.123Z,98655.45
2018-08-20T06:43:42.527Z,98653.73
2018-08-20T06:46:11.762Z,98653.56
2018-08-20T06:48:41.142Z,98648.00
2018-08-20T06:51:10.831Z,98654.42
2018-08-20T06:53:40.034Z,98656.28
2018-08-20T06:56:09.322Z,98652.58
2018-08-20T06:58:38.627Z,98660.14
2018-08-20T07:01:08.543Z,98656.86
2018-08-20T07:03:37.947Z,98657.91
2018-08-20T07:06:07.499Z,98656.00
2018-08-20T07:08:36.780Z,98618.59
2018-08-20T07:11:06.048Z,98652.09
2018-08-20T07:13:36.584Z,98648.72
2018-08-20T07:16:07.001Z,98647.59
2018-08-20T07:18:36.513Z,98639.77
2018-08-20T07:21:05.895Z,98645.09
2018-08-20T07:23:35.581Z,98641.73
2018-08-20T07:26:04.968Z,98520.67
2018-08-20T07:28:34.538Z,98651.87
2018-08-20T07:31:04.112Z,98655.12
2018-08-20T07:33:33.922Z,98661.92
2018-08-20T07:36:03.877Z,98667.20
2018-08-20T07:38:34.010Z,98668.02
2018-08-20T07:41:03.896Z,98662.41
2018-08-20T07:43:33.913Z,98663.55
2018-08-20T07:46:03.559Z,98663.05
2018-08-20T07:48:33.843Z,98667.36
2018-08-20T07:51:03.847Z,98673.33
2018-08-20T07:53:33.675Z,98675.78
2018-08-20T07:56:03.284Z,98671.69
2018-08-20T07:58:33.223Z,98671.48
2018-08-20T08:01:03.513Z,98675.45
2018-08-20T08:03:33.377Z,98673.52
2018-08-20T08:06:04.726Z,98673.63
2018-08-20T08:08:34.953Z,98670.38
2018-08-20T08:11:07.302Z,98677.52
2018-08-20T08:13:37.196Z,98680.38
2018-08-20T08:16:08.130Z,98684.13
2018-08-20T08:18:38.109Z,98680.08
2018-08-20T08:21:08.481Z,98678.23
2018-08-20T08:23:38.373Z,98674.91
2018-08-20T08:26:09.295Z,98678.09
2018-08-20T08:28:39.254Z,98680.23
2018-08-20T08:31:09.041Z,98684.39
2018-08-20T08:33:38.873Z,98678.58
2018-08-20T08:36:09.387Z,98683.04
2018-08-20T08:38:39.027Z,98688.52
2018-08-20T08:41:08.940Z,98682.19
2018-08-20T08:43:38.753Z,98690.87
2018-08-20T08:46:08.524Z,98682.23
2018-08-20T08:48:38.335Z,98677.92
2018-08-20T08:51:08.265Z,98685.29
2018-08-20T08:53:37.837Z,98684.36
2018-08-20T08:56:07.787Z,98682.47
2018-08-20T08:58:39.502Z,98683.45
2018-08-20T09:01:09.385Z,98686.19
2018-08-20T09:03:39.339Z,98688.40
2018-08-20T09:06:09.353Z,98687.16
2018-08-20T09:08:39.136Z,98688.81
2018-08-20T09:11:09.973Z,98686.30
2018-08-20T09:13:39.886Z,98698.26
2018-08-20T09:16:09.634Z,98693.61
2018-08-20T09:18:39.936Z,98701.78
2018-08-20T09:21:10.634Z,98699.74
2018-08-20T09:23:40.454Z,98698.05
2018-08-20T09:26:10.988Z,98701.19
2018-08-20T09:28:41.224Z,98703.50
2018-08-20T09:31:11.238Z,98708.17
2018-08-20T09:33:41.290Z,98703.91
2018-08-20T09:36:11.014Z,98699.69
2018-08-20T09:38:41.844Z,98695.83
2018-08-20T09:41:11.560Z,98707.48
2018-08-20T09:43:41.306Z,98699.55
2018-08-20T09:46:11.063Z,98697.81
2018-08-20T09:48:40.878Z,98703.92
2018-08-20T09:51:10.390Z,98703.26
2018-08-20T09:53:40.288Z,98703.33
2018-08-20T09:56:10.470Z,98700.66
2018-08-20T09:58:40.026Z,98708.72
2018-08-20T10:01:11.321Z,98711.92
2018-08-20T10:03:46.605Z,98702.69
2018-08-20T10:06:16.731Z,98703.95
2018-08-20T10:08:46.531Z,98712.95
2018-08-20T10:11:16.764Z,98705.44
2018-08-20T10:13:46.599Z,98700.83
2018-08-20T10:16:16.383Z,98710.34
2018-08-20T10:18:46.067Z,98699.63
2018-08-20T10:21:16.308Z,98705.67
2018-08-20T10:23:46.268Z,98704.33
2018-08-20T10:26:15.990Z,98710.38
2018-08-20T10:28:45.661Z,98706.71
2018-08-20T10:31:15.381Z,98710.14
2018-08-20T10:33:44.979Z,98710.47
2018-08-20T10:36:14.526Z,98711.38
2018-08-20T10:38:44.186Z,98708.70
2018-08-20T10:41:13.719Z,98706.52
2018-08-20T10:43:43.200Z,98699.20
2018-08-20T10:46:21.545Z,98701.91
2018-08-20T10:48:50.908Z,98699.53
2018-08-20T10:51:20.628Z,98696.68
2018-08-20T10:53:50.234Z,98688.03
2018-08-20T10:56:20.076Z,98680.73
2018-08-20T10:58:49.642Z,98682.77
2018-08-20T11:01:19.767Z,98682.20
2018-08-20T11:03:54.834Z,98680.70
2018-08-20T11:06:24.883Z,98675.84
2018-08-20T11:08:54.491Z,98671.30
2018-08-20T11:11:24.273Z,98673.47
2018-08-20T11:13:53.735Z,98677.19
2018-08-20T11:16:23.593Z,98676.23
2018-08-20T11:18:53.665Z,98672.73
2018-08-20T11:21:23.400Z,98671.98
2018-08-20T11:23:53.070Z,98671.16
2018-08-20T11:26:22.925Z,98663.55
2018-08-20T11:28:52.575Z,98660.16
2018-08-20T11:31:22.367Z,98659.10
2018-08-20T11:33:52.394Z,98660.00
2018-08-20T11:36:22.156Z,98662.93
2018-08-20T11:38:51.969Z,98656.94
2018-08-20T11:41:21.643Z,98654.57
2018-08-20T11:43:51.398Z,98656.06
2018-08-20T11:46:21.058Z,98650.41
2018-08-20T11:48:51.025Z,98649.27
2018-08-20T11:51:20.615Z,98653.12
2018-08-20T11:53:50.339Z,98651.27
2018-08-20T11:56:20.030Z,98643.94
2018-08-20T11:58:49.975Z,98639.36
2018-08-20T12:01:19.946Z,98642.24
2018-08-20T12:03:54.178Z,98643.02
2018-08-20T12:06:26.218Z,98642.61
2018-08-20T12:08:56.488Z,98639.50
2018-08-20T12:11:26.248Z,98648.94
2018-08-20T12:13:56.211Z,98648.67
2018-08-20T12:16:26.074Z,98651.34
2018-08-20T12:18:55.941Z,98646.91
2018-08-20T12:21:25.769Z,98650.89
2018-08-20T12:23:55.675Z,98648.50
2018-08-20T12:26:25.626Z,98650.36
2018-08-20T12:28:55.644Z,98651.47
2018-08-20T12:31:27.407Z,98649.32
2018-08-20T12:33:57.237Z,98646.33
2018-08-20T12:37:08.231Z,98643.86
2018-08-20T12:39:51.764Z,98647.88
2018-08-20T12:42:41.960Z,98648.20
2018-08-20T12:45:11.778Z,98647.63
2018-08-20T12:47:41.762Z,98648.44
2018-08-20T12:50:11.224Z,98646.30
2018-08-20T12:52:41.729Z,98647.65
2018-08-20T12:55:11.678Z,98653.59
2018-08-20T12:57:41.427Z,98647.36
2018-08-20T13:00:12.087Z,98652.48
2018-08-20T13:02:41.983Z,98645.23
2018-08-20T13:05:13.492Z,98645.52
2018-08-20T13:07:43.310Z,98640.37
2018-08-20T13:10:13.240Z,98650.36
2018-08-20T13:12:44.856Z,98643.89
2018-08-20T13:15:15.565Z,98647.94
2018-08-20T13:17:46.175Z,98653.34
2018-08-20T13:20:17.309Z,98645.80
2018-08-20T13:22:47.722Z,98645.80
2018-08-20T13:25:17.581Z,98645.80
2018-08-20T13:27:47.492Z,98649.00
2018-08-20T13:30:17.451Z,98651.20
2018-08-20T13:32:48.171Z,98648.23
2018-08-20T13:35:18.005Z,98644.98
2018-08-20T13:37:47.688Z,98644.16
2018-08-20T13:40:19.547Z,98637.95
2018-08-20T13:42:49.617Z,98638.44
2018-08-20T13:45:19.979Z,98642.75
2018-08-20T13:47:49.833Z,98639.50
2018-08-20T13:50:19.810Z,98644.58
2018-08-20T13:52:49.744Z,98642.63
2018-08-20T13:55:19.662Z,98644.55
2018-08-20T13:57:50.022Z,98638.63
2018-08-20T14:00:21.744Z,98641.80
2018-08-20T14:02:53.362Z,98643.47
2018-08-20T14:05:23.410Z,98639.30
2018-08-20T14:07:55.380Z,98630.96
2018-08-20T14:10:27.790Z,98638.70
2018-08-20T14:12:57.598Z,98629.95
2018-08-20T14:15:28.401Z,98635.42
2018-08-20T14:17:59.465Z,98633.36
2018-08-20T14:20:29.287Z,98631.61
2018-08-20T14:22:58.999Z,98635.43
2018-08-20T14:25:29.016Z,98632.67
2018-08-20T14:27:59.409Z,98635.67
2018-08-20T14:30:29.315Z,98638.31
2018-08-20T14:32:58.978Z,98634.41
2018-08-20T14:35:29.654Z,98634.45
2018-08-20T14:37:59.159Z,98637.50
2018-08-20T14:40:28.978Z,98632.65
2018-08-20T14:42:58.650Z,98634.99
2018-08-20T14:46:32.168Z,98636.45
2018-08-20T14:49:02.133Z,98633.91
2018-08-20T14:51:31.906Z,98635.06
2018-08-20T14:54:01.996Z,98630.11
2018-08-20T14:56:31.955Z,98625.02
2018-08-20T14:59:01.502Z,98622.97
2018-08-20T15:01:31.918Z,98625.30
2018-08-20T15:04:01.806Z,98633.36
2018-08-20T15:06:31.668Z,98627.97
2018-08-20T15:09:04.806Z,98628.47
2018-08-20T15:11:35.215Z,98628.41
2018-08-20T15:14:05.071Z,98629.69
2018-08-20T15:16:34.856Z,98630.08
2018-08-20T15:19:05.518Z,98627.38
2018-08-20T15:21:35.386Z,98631.69
2018-08-20T15:24:05.400Z,98628.16
2018-08-20T15:26:35.044Z,98630.39
2018-08-20T15:29:04.920Z,98629.57
2018-08-20T15:31:35.165Z,98623.91
2018-08-20T15:34:04.925Z,98628.24
2018-08-20T15:36:34.741Z,98620.45
2018-08-20T15:39:04.817Z,98623.16
2018-08-20T15:41:35.061Z,98618.29
2018-08-20T15:44:05.570Z,98620.17
2018-08-20T15:46:35.265Z,98623.16
2018-08-20T15:49:05.342Z,98620.44
2018-08-20T15:51:35.035Z,98621.80
2018-08-20T15:54:04.884Z,98616.97
2018-08-20T15:56:35.336Z,98613.72
2018-08-20T15:59:05.042Z,98609.69
2018-08-20T16:01:34.816Z,98611.81
2018-08-20T16:04:04.743Z,98615.33
2018-08-20T16:06:34.297Z,98618.03
2018-08-20T16:09:04.321Z,98617.75
2018-08-20T16:11:33.747Z,98614.50
2018-08-20T16:14:02.972Z,98611.80
2018-08-20T16:16:32.368Z,98613.98
2018-08-20T16:19:01.758Z,98615.88
2018-08-20T16:21:31.185Z,98616.70
2018-08-20T16:24:00.773Z,98622.89
2018-08-20T16:26:30.328Z,98623.94
2018-08-20T16:28:59.771Z,98616.96
2018-08-20T16:31:29.286Z,98626.14
2018-08-20T16:33:58.695Z,98622.63
2018-08-20T16:36:28.194Z,98615.86
2018-08-20T16:38:57.694Z,98610.70
2018-08-20T16:41:27.202Z,98608.55
2018-08-20T16:43:56.702Z,98610.48
2018-08-20T16:46:26.073Z,98614.53
2018-08-20T16:48:55.630Z,98492.61
2018-08-20T16:51:25.270Z,98617.52
2018-08-20T16:53:54.589Z,98614.55
2018-08-20T16:56:23.823Z,98618.03
2018-08-20T16:58:53.321Z,98615.07
2018-08-20T17:01:22.722Z,98617.75
2018-08-20T17:03:52.429Z,98616.67
2018-08-20T17:06:22.447Z,98608.28
2018-08-20T17:08:51.849Z,98614.77
2018-08-20T17:11:21.355Z,98614.51
2018-08-20T17:13:50.762Z,98609.39
2018-08-20T17:16:20.158Z,98606.72
2018-08-20T17:18:49.560Z,98599.97
2018-08-20T17:21:19.065Z,98605.08
2018-08-20T17:23:48.467Z,98605.38
2018-08-20T17:26:17.869Z,98611.84
2018-08-20T17:28:47.174Z,98608.58
2018-08-20T17:31:16.674Z,98611.80
2018-08-20T17:33:46.105Z,98611.27
2018-08-20T17:36:15.478Z,98619.06
2018-08-20T17:38:45.188Z,98616.36
2018-08-20T17:41:14.803Z,98609.90
2018-08-20T17:43:44.390Z,98610.70
2018-08-20T17:46:13.791Z,98612.33
2018-08-20T17:48:43.188Z,98619.59
2018-08-20T17:51:14.556Z,98626.61
2018-08-20T17:53:49.795Z,98618.82
2018-08-20T17:56:19.285Z,98626.63
2018-08-20T17:58:57.436Z,98621.23
2018-08-20T18:01:27.396Z,98624.98
2018-08-20T18:03:56.914Z,98625.83
2018-08-20T18:06:50.043Z,98625.56
2018-08-20T18:09:19.474Z,98630.41
2018-08-20T18:11:48.874Z,98634.72
2018-08-20T18:14:21.051Z,98635.53
2018-08-20T18:16:50.545Z,98635.50
2018-08-20T18:19:20.261Z,98630.12
2018-08-20T18:21:50.069Z,98634.16
2018-08-20T18:24:20.668Z,98633.31
2018-08-20T18:26:54.655Z,98638.97
2018-08-20T18:29:24.416Z,98640.06
2018-08-20T18:31:56.959Z,98641.41
2018-08-20T18:34:26.711Z,98642.48
2018-08-20T18:36:56.059Z,98639.75
2018-08-20T18:39:25.516Z,98637.53
2018-08-20T18:41:59.270Z,98633.49
2018-08-20T18:44:28.819Z,98646.74
2018-08-20T18:46:58.429Z,98639.76
2018-08-20T18:49:28.297Z,98641.83
2018-08-20T18:52:14.742Z,98649.91
2018-08-20T18:54:45.931Z,98654.44
2018-08-20T18:57:30.028Z,98660.39
2018-08-20T19:00:03.272Z,98666.06
2018-08-20T19:02:41.717Z,98671.70
2018-08-20T19:05:14.032Z,98668.19
2018-08-20T19:07:44.341Z,98664.39
2018-08-20T19:10:19.505Z,98674.34
2018-08-20T19:12:49.440Z,98673.25
2018-08-20T19:15:38.544Z,98677.28
2018-08-20T19:20:46.131Z,98677.47
2018-08-20T19:23:16.031Z,98681.17
2018-08-20T19:25:46.115Z,98679.59
2018-08-20T19:28:23.420Z,98681.50
2018-08-20T19:30:55.032Z,98675.20
2018-08-20T19:33:27.319Z,98677.36
2018-08-20T19:35:57.225Z,98676.06
2018-08-20T19:38:26.809Z,98676.83
2018-08-20T19:41:04.381Z,98676.00
2018-08-20T19:43:44.064Z,98681.24
2018-08-20T19:46:14.075Z,98683.61
2018-08-20T19:48:43.939Z,98690.05
2018-08-20T19:51:13.655Z,98684.14
2018-08-20T19:53:43.212Z,98694.91
2018-08-20T19:56:14.257Z,98692.46
2018-08-20T19:58:44.339Z,98698.88
2018-08-20T20:01:15.569Z,98698.03
2018-08-20T20:03:47.192Z,98700.41
2018-08-20T20:06:17.165Z,98699.91
2018-08-20T20:08:47.085Z,98709.85
2018-08-20T20:11:23.189Z,98710.08
2018-08-20T20:13:53.986Z,98712.25
2018-08-20T20:16:23.927Z,98707.30
2018-08-20T20:18:54.934Z,98705.20
2018-08-20T20:21:25.157Z,98704.80
2018-08-20T20:23:55.881Z,98708.57
2018-08-20T20:26:25.287Z,98708.84
2018-08-20T20:28:54.692Z,98699.66
2018-08-20T20:31:24.298Z,98705.50
2018-08-20T20:33:54.060Z,98699.63
2018-08-20T20:36:26.253Z,98700.80
2018-08-20T20:38:56.988Z,98694.12
2018-08-20T20:41:26.928Z,98692.52
2018-08-20T20:43:56.500Z,98694.16
2018-08-20T20:46:27.263Z,98701.61
2018-08-20T20:48:56.691Z,98702.63
2018-08-20T20:51:26.274Z,98702.63
2018-08-20T20:53:55.691Z,98705.76
2018-08-20T20:56:25.384Z,98707.57
2018-08-20T20:58:55.878Z,98705.03
2018-08-20T21:01:25.371Z,98710.28
2018-08-20T21:03:55.023Z,98667.34
2018-08-20T21:06:27.561Z,98713.19
2018-08-20T21:08:58.969Z,98726.06
2018-08-20T21:11:28.759Z,98719.22
2018-08-20T21:13:58.186Z,98725.64
2018-08-20T21:16:27.973Z,98717.00
2018-08-20T21:18:58.197Z,98721.73
2018-08-20T21:21:28.516Z,98720.34
2018-08-20T21:24:00.173Z,98726.44
2018-08-20T21:26:29.658Z,98734.16
2018-08-20T21:28:59.099Z,98728.27
2018-08-20T21:31:30.906Z,98733.11
2018-08-20T21:34:01.652Z,98726.66
2018-08-20T21:36:31.278Z,98729.52
2018-08-20T21:39:00.680Z,98729.31
2018-08-20T21:41:30.594Z,98732.84
2018-08-20T21:44:00.099Z,98729.28
2018-08-20T21:46:29.604Z,98730.17
2018-08-20T21:48:59.312Z,98728.31
2018-08-20T21:51:30.455Z,98729.09
2018-08-20T21:53:59.892Z,98723.89
2018-08-20T21:57:01.876Z,98728.96
2018-08-20T21:59:31.432Z,98730.83
2018-08-20T22:02:00.987Z,98725.95
2018-08-20T22:04:31.530Z,98732.46
2018-08-20T22:07:01.227Z,98736.00
2018-08-20T22:09:30.575Z,98744.92
2018-08-20T22:12:00.080Z,98750.38
2018-08-20T22:14:29.569Z,98752.51
2018-08-20T22:16:59.189Z,98752.28
2018-08-20T22:19:28.694Z,98752.25
2018-08-20T22:21:58.302Z,98753.30
2018-08-20T22:24:27.702Z,98755.45
2018-08-20T22:26:59.271Z,98756.80
2018-08-20T22:29:36.831Z,98754.31
2018-08-20T22:32:08.092Z,98765.30
2018-08-20T22:34:37.676Z,98765.82
2018-08-20T22:37:08.535Z,98769.55
2018-08-20T22:39:38.040Z,98764.97
2018-08-20T22:42:07.446Z,98766.31
2018-08-20T22:44:36.947Z,98766.22
2018-08-20T22:47:06.453Z,98765.40
2018-08-20T22:49:35.853Z,98766.58
2018-08-20T22:52:09.581Z,98773.02
2018-08-20T22:54:38.958Z,98774.36
2018-08-20T22:57:08.360Z,98774.69
2018-08-20T22:59:37.763Z,98777.99
2018-08-20T23:02:07.121Z,98776.30
2018-08-20T23:04:36.566Z,98774.95
2018-08-20T23:07:10.268Z,98779.53
2018-08-20T23:09:39.858Z,98778.71
2018-08-20T23:12:09.488Z,98783.13
2018-08-20T23:14:38.885Z,98779.59
2018-08-20T23:17:08.390Z,98782.44
2018-08-20T23:19:37.894Z,98780.87
2018-08-20T23:22:07.501Z,98780.15
2018-08-20T23:24:43.324Z,98784.44
2018-08-20T23:27:12.584Z,98787.58
2018-08-20T23:29:45.626Z,98716.70
2018-08-20T23:32:15.558Z,98794.89
2018-08-20T23:34:45.023Z,98789.96
2018-08-20T23:37:14.359Z,98796.86
2018-08-20T23:39:43.761Z,98796.83
2018-08-20T23:42:13.161Z,98798.05
2018-08-20T23:44:42.562Z,98796.41
2018-08-20T23:47:12.068Z,98797.06
2018-08-20T23:49:41.674Z,98796.70
2018-08-20T23:52:11.013Z,98798.66
2018-08-20T23:54:40.274Z,98796.41
2018-08-20T23:57:09.674Z,98804.19
2018-08-20T23:59:38.978Z,98800.16
